Time;durP1;ratioP1;P1;durP2;ratioP2;P2;SDS_P1;SDS_P2;PMS_P1;PMS_P2;Temp;Humidity;BMP_temperature;BMP_pressure;BME280_temperature;BME280_humidity;BME280_pressure;Samples;Min_cycle;Max_cycle;Signal;HPM_P1;HPM_P2
2023/05/09 00:02:19;;;;;;;30.05;18.10;;;15.40;99.90;;;;;;5050637;28;20048;-90
2023/05/09 00:04:46;;;;;;;33.42;18.90;;;15.40;99.90;;;;;;5048823;28;20278;-89
2023/05/09 00:07:11;;;;;;;33.22;19.83;;;15.40;99.90;;;;;;5047614;28;20052;-89
2023/05/09 00:09:37;;;;;;;28.23;18.95;;;15.30;99.90;;;;;;5045975;28;20484;-90
2023/05/09 00:12:03;;;;;;;31.08;19.52;;;15.30;99.90;;;;;;5049145;28;20146;-90
2023/05/09 00:14:29;;;;;;;33.50;19.05;;;15.30;99.90;;;;;;5043990;28;20126;-89
2023/05/09 00:16:58;;;;;;;30.27;18.70;;;15.20;99.90;;;;;;5046466;28;20046;-89
2023/05/09 00:19:23;;;;;;;29.10;18.70;;;15.10;99.90;;;;;;5042999;28;20078;-91
2023/05/09 00:21:49;;;;;;;34.05;19.27;;;15.10;99.90;;;;;;5052353;28;20119;-90
2023/05/09 00:24:15;;;;;;;30.13;18.30;;;15.10;99.90;;;;;;5064705;28;20033;-90
2023/05/09 00:26:40;;;;;;;31.58;18.80;;;15.10;99.90;;;;;;5063342;28;20427;-90
2023/05/09 00:29:06;;;;;;;32.17;18.58;;;15.10;99.90;;;;;;5049055;28;20021;-90
2023/05/09 00:31:32;;;;;;;30.48;18.83;;;15.00;99.90;;;;;;5032758;28;20060;-89
2023/05/09 00:33:59;;;;;;;29.50;17.52;;;15.00;99.90;;;;;;5033741;28;20048;-89
2023/05/09 00:36:25;;;;;;;30.10;18.02;;;15.00;99.90;;;;;;5047645;28;20030;-89
2023/05/09 00:38:50;;;;;;;26.77;16.90;;;15.00;99.90;;;;;;5054237;28;20025;-90
2023/05/09 00:41:16;;;;;;;30.80;18.65;;;15.00;99.90;;;;;;5056207;28;20025;-89
2023/05/09 00:43:42;;;;;;;31.10;18.00;;;15.00;99.90;;;;;;5037392;28;20036;-90
2023/05/09 00:46:07;;;;;;;28.25;17.65;;;15.00;99.90;;;;;;5033016;28;20092;-90
2023/05/09 00:48:34;;;;;;;33.42;19.30;;;15.00;99.90;;;;;;5049470;28;20032;-90
2023/05/09 00:51:00;;;;;;;32.60;18.52;;;15.00;99.90;;;;;;5033824;28;20039;-89
2023/05/09 00:53:26;;;;;;;28.90;18.90;;;15.00;99.90;;;;;;5053583;28;20039;-91
2023/05/09 00:55:54;;;;;;;33.35;19.00;;;15.00;99.90;;;;;;5034862;28;20020;-90
2023/05/09 00:58:20;;;;;;;29.25;17.00;;;15.00;99.90;;;;;;5062881;28;20115;-90
2023/05/09 01:00:46;;;;;;;26.30;16.35;;;15.00;99.90;;;;;;5032167;28;20120;-90
2023/05/09 01:03:13;;;;;;;25.48;15.57;;;15.00;99.90;;;;;;5050895;28;20033;-90
2023/05/09 01:06:06;;;;;;;27.60;16.33;;;15.00;99.90;;;;;;5050898;28;20074;-90
2023/05/09 01:08:43;;;;;;;24.52;15.82;;;14.90;99.90;;;;;;5054967;28;20483;-89
2023/05/09 01:11:17;;;;;;;24.50;15.48;;;14.90;99.90;;;;;;5046009;28;20028;-90
2023/05/09 01:13:57;;;;;;;25.40;14.85;;;14.90;99.90;;;;;;5053828;28;20072;-89
2023/05/09 01:16:38;;;;;;;25.02;15.57;;;14.90;99.90;;;;;;5050903;28;20021;-90
2023/05/09 01:19:40;;;;;;;24.00;14.20;;;14.90;99.90;;;;;;5036216;28;20066;-90
2023/05/09 01:22:10;;;;;;;23.13;14.57;;;14.90;99.90;;;;;;5070779;28;20455;-89
2023/05/09 01:25:00;;;;;;;24.88;15.77;;;14.90;99.90;;;;;;5038947;28;20021;-89
2023/05/09 01:27:48;;;;;;;24.33;14.77;;;14.90;99.90;;;;;;5058219;28;20028;-89
2023/05/09 01:30:16;;;;;;;26.70;15.80;;;14.90;99.90;;;;;;5034078;28;20021;-90
2023/05/09 01:32:48;;;;;;;32.35;17.52;;;14.90;99.90;;;;;;5037836;28;20175;-90
2023/05/09 01:35:15;;;;;;;25.48;15.45;;;14.90;99.90;;;;;;5049454;28;20115;-89
2023/05/09 01:37:43;;;;;;;27.35;15.52;;;15.00;99.90;;;;;;5034090;28;20033;-89
2023/05/09 01:40:15;;;;;;;27.48;15.98;;;15.00;99.90;;;;;;5036193;28;20126;-90
2023/05/09 01:43:12;;;;;;;26.92;15.60;;;15.00;99.90;;;;;;5054464;28;20040;-89
2023/05/09 01:45:38;;;;;;;24.52;15.20;;;15.00;99.90;;;;;;5042610;28;20116;-89
2023/05/09 01:48:09;;;;;;;26.45;15.20;;;15.00;99.90;;;;;;5035625;28;20037;-90
2023/05/09 01:50:36;;;;;;;27.65;15.77;;;15.00;99.90;;;;;;5039691;28;20033;-90
2023/05/09 01:53:04;;;;;;;28.63;16.30;;;15.00;99.90;;;;;;5037141;28;20179;-89
2023/05/09 01:55:32;;;;;;;26.83;15.20;;;15.00;99.90;;;;;;5050844;28;20543;-90
2023/05/09 01:57:58;;;;;;;27.48;16.08;;;15.00;99.90;;;;;;5056461;28;20105;-90
2023/05/09 02:00:24;;;;;;;25.17;16.05;;;15.00;99.90;;;;;;5040232;28;20024;-90
2023/05/09 02:02:53;;;;;;;27.20;15.90;;;15.00;99.90;;;;;;5035436;28;20477;-90
2023/05/09 02:05:20;;;;;;;26.88;14.60;;;15.00;99.90;;;;;;5045016;28;20035;-91
2023/05/09 02:07:47;;;;;;;25.35;15.23;;;15.00;99.90;;;;;;5052965;28;20108;-90
2023/05/09 02:10:14;;;;;;;29.27;15.70;;;15.00;99.90;;;;;;5055922;28;20097;-91
2023/05/09 02:12:40;;;;;;;29.55;16.17;;;15.00;99.90;;;;;;5028957;28;20056;-90
2023/05/09 02:15:07;;;;;;;26.77;16.83;;;15.00;99.90;;;;;;5043829;28;20091;-91
2023/05/09 02:17:33;;;;;;;26.35;15.75;;;15.00;99.90;;;;;;5036839;28;20028;-89
2023/05/09 02:19:59;;;;;;;30.25;16.88;;;15.00;99.90;;;;;;5048413;28;20036;-90
2023/05/09 02:22:25;;;;;;;23.92;15.40;;;15.00;99.90;;;;;;5041624;28;20188;-91
2023/05/09 02:24:51;;;;;;;23.30;14.13;;;15.00;99.90;;;;;;5057491;28;20074;-92
2023/05/09 02:27:18;;;;;;;26.33;15.82;;;15.00;99.90;;;;;;5037433;28;20048;-91
2023/05/09 02:29:48;;;;;;;26.40;15.32;;;15.00;99.90;;;;;;5059179;28;20556;-90
2023/05/09 02:32:17;;;;;;;28.17;15.95;;;15.00;99.90;;;;;;5057951;28;20389;-90
2023/05/09 02:34:44;;;;;;;27.05;15.30;;;15.00;99.90;;;;;;5039901;28;20357;-90
2023/05/09 02:37:11;;;;;;;27.52;16.48;;;15.00;99.90;;;;;;5036046;28;20044;-89
2023/05/09 02:39:37;;;;;;;29.70;16.67;;;15.00;99.90;;;;;;5048503;28;20027;-90
2023/05/09 02:42:05;;;;;;;28.38;16.75;;;15.00;99.90;;;;;;5034281;28;20381;-90
2023/05/09 02:44:32;;;;;;;30.92;17.92;;;15.00;99.90;;;;;;5054946;28;20488;-90
2023/05/09 02:46:57;;;;;;;29.13;15.90;;;15.00;99.90;;;;;;5064214;28;20290;-90
2023/05/09 02:49:23;;;;;;;28.42;16.38;;;15.00;99.90;;;;;;5048121;28;20259;-89
2023/05/09 02:51:48;;;;;;;28.88;16.02;;;15.00;99.90;;;;;;5073511;28;20056;-90
2023/05/09 02:54:14;;;;;;;28.02;16.05;;;15.00;99.90;;;;;;5055555;28;20358;-91
2023/05/09 02:56:40;;;;;;;27.00;16.90;;;14.90;99.90;;;;;;5049498;28;20161;-91
2023/05/09 02:59:06;;;;;;;30.35;16.92;;;15.00;99.90;;;;;;5058025;28;20047;-91
2023/05/09 03:01:31;;;;;;;25.90;15.27;;;15.00;99.90;;;;;;5038414;28;20032;-90
2023/05/09 03:03:57;;;;;;;28.98;16.52;;;15.00;99.90;;;;;;5033895;28;20040;-91
2023/05/09 03:06:23;;;;;;;27.58;16.73;;;15.00;99.90;;;;;;5038570;28;20499;-91
2023/05/09 03:08:49;;;;;;;26.52;15.45;;;15.10;99.90;;;;;;5047200;28;20020;-90
2023/05/09 03:11:15;;;;;;;27.10;16.15;;;15.10;99.90;;;;;;5031659;28;20525;-90
2023/05/09 03:13:41;;;;;;;26.70;16.15;;;15.10;99.90;;;;;;5054830;28;20045;-90
2023/05/09 03:16:06;;;;;;;29.42;16.35;;;15.10;99.90;;;;;;5043991;28;20383;-90
2023/05/09 03:18:32;;;;;;;28.17;17.17;;;15.00;99.90;;;;;;5047419;28;20119;-90
2023/05/09 03:20:58;;;;;;;28.58;16.20;;;15.00;99.90;;;;;;5035558;28;20024;-90
2023/05/09 03:23:24;;;;;;;30.17;18.35;;;15.00;99.90;;;;;;5045270;28;20044;-90
2023/05/09 03:25:51;;;;;;;28.50;16.48;;;15.00;99.90;;;;;;5047058;28;20534;-90
2023/05/09 03:28:16;;;;;;;29.90;16.80;;;15.00;99.90;;;;;;5034024;28;20029;-90
2023/05/09 03:30:42;;;;;;;28.75;17.70;;;15.00;99.90;;;;;;5055133;28;20024;-90
2023/05/09 03:33:11;;;;;;;27.57;16.50;;;15.00;99.90;;;;;;5030174;28;20405;-89
2023/05/09 03:35:37;;;;;;;29.35;17.45;;;15.00;99.90;;;;;;5048025;28;20032;-90
2023/05/09 03:38:03;;;;;;;33.97;18.52;;;14.90;99.90;;;;;;5032904;28;20029;-91
2023/05/09 03:40:28;;;;;;;28.30;16.65;;;14.90;99.90;;;;;;5051329;28;20025;-90
2023/05/09 03:43:04;;;;;;;32.63;17.98;;;15.00;99.90;;;;;;5044944;28;20033;-90
2023/05/09 03:45:30;;;;;;;28.65;17.23;;;14.90;99.90;;;;;;5033209;28;20028;-90
2023/05/09 03:47:56;;;;;;;31.60;18.55;;;14.90;99.90;;;;;;5053497;28;20022;-90
2023/05/09 03:50:22;;;;;;;29.85;16.90;;;14.90;99.90;;;;;;5033200;28;20051;-89
2023/05/09 03:52:50;;;;;;;29.02;17.83;;;14.90;99.90;;;;;;5069660;28;20032;-91
2023/05/09 03:55:16;;;;;;;25.98;16.83;;;14.90;99.90;;;;;;5050514;28;20086;-90
2023/05/09 03:57:42;;;;;;;27.63;16.27;;;14.90;99.90;;;;;;5031590;28;20484;-91
2023/05/09 04:00:09;;;;;;;30.52;18.35;;;14.90;99.90;;;;;;5048599;28;20032;-90
2023/05/09 04:02:48;;;;;;;31.30;17.52;;;14.90;99.90;;;;;;5047329;28;20046;-90
2023/05/09 04:05:23;;;;;;;25.52;15.80;;;14.90;99.90;;;;;;5049335;28;20074;-90
2023/05/09 04:07:49;;;;;;;26.08;15.70;;;14.80;99.90;;;;;;5048645;28;20032;-90
2023/05/09 04:10:15;;;;;;;26.92;17.75;;;14.80;99.90;;;;;;5051364;28;20083;-90
2023/05/09 04:12:41;;;;;;;29.77;16.83;;;14.80;99.90;;;;;;5030352;28;20035;-90
2023/05/09 04:15:07;;;;;;;30.45;17.08;;;14.80;99.90;;;;;;5044239;28;20032;-90
2023/05/09 04:17:34;;;;;;;27.85;16.70;;;14.80;99.90;;;;;;5050066;28;20024;-89
2023/05/09 04:20:00;;;;;;;30.30;15.85;;;14.80;99.90;;;;;;5028955;28;20516;-90
2023/05/09 04:22:28;;;;;;;26.70;15.35;;;14.80;99.90;;;;;;5028769;28;20068;-90
2023/05/09 04:24:54;;;;;;;27.17;16.08;;;14.80;99.90;;;;;;5055980;28;20028;-90
2023/05/09 04:27:20;;;;;;;26.98;15.93;;;14.80;99.90;;;;;;5034259;28;20040;-90
2023/05/09 04:29:48;;;;;;;27.60;15.02;;;14.80;99.90;;;;;;5042454;28;20591;-89
2023/05/09 04:32:14;;;;;;;25.65;15.82;;;14.80;99.90;;;;;;5037435;28;20025;-89
2023/05/09 04:34:40;;;;;;;25.08;15.02;;;14.80;99.90;;;;;;5037626;28;20029;-89
2023/05/09 04:37:12;;;;;;;25.45;15.07;;;14.80;99.90;;;;;;5037336;28;20040;-90
2023/05/09 04:39:38;;;;;;;26.95;15.65;;;14.80;99.90;;;;;;5047618;28;20386;-90
2023/05/09 04:42:12;;;;;;;24.27;15.48;;;14.70;99.90;;;;;;5032802;28;20169;-90
2023/05/09 04:44:38;;;;;;;26.67;16.60;;;14.70;99.90;;;;;;5058245;28;20119;-89
2023/05/09 04:47:04;;;;;;;22.67;14.38;;;14.80;99.90;;;;;;5061741;28;20174;-90
2023/05/09 04:49:30;;;;;;;22.33;14.27;;;14.70;99.90;;;;;;5050895;28;20051;-89
2023/05/09 04:51:56;;;;;;;21.50;13.63;;;14.80;99.90;;;;;;5029935;28;20496;-89
2023/05/09 04:54:21;;;;;;;23.88;13.65;;;14.80;99.90;;;;;;5029295;28;20017;-90
2023/05/09 04:56:51;;;;;;;22.63;12.90;;;14.70;99.90;;;;;;5044934;28;20024;-89
2023/05/09 04:59:17;;;;;;;19.88;11.75;;;14.70;99.90;;;;;;5046326;28;20279;-89
2023/05/09 05:01:43;;;;;;;21.33;12.80;;;14.80;99.90;;;;;;5046951;28;20026;-88
2023/05/09 05:04:09;;;;;;;22.55;13.50;;;14.80;99.90;;;;;;5054754;28;20028;-89
2023/05/09 05:06:35;;;;;;;19.10;11.55;;;14.80;99.90;;;;;;5046301;28;20115;-88
2023/05/09 05:09:00;;;;;;;20.38;12.77;;;14.80;99.90;;;;;;5034545;28;20442;-89
2023/05/09 05:11:26;;;;;;;18.98;12.18;;;14.80;99.90;;;;;;5043993;28;20027;-89
2023/05/09 05:13:52;;;;;;;19.63;12.20;;;14.90;99.90;;;;;;5046783;28;20056;-89
2023/05/09 05:16:18;;;;;;;17.80;11.13;;;14.90;99.90;;;;;;5028817;28;20115;-89
2023/05/09 05:18:44;;;;;;;18.52;12.15;;;14.90;99.90;;;;;;5032737;28;20055;-89
2023/05/09 05:21:11;;;;;;;17.95;11.98;;;14.90;99.90;;;;;;5034333;28;20017;-88
2023/05/09 05:23:36;;;;;;;19.65;11.65;;;14.90;99.90;;;;;;5006601;28;20151;-88
2023/05/09 05:26:02;;;;;;;19.85;12.65;;;14.90;99.90;;;;;;5032064;28;20040;-88
2023/05/09 05:28:30;;;;;;;19.92;11.85;;;14.90;99.90;;;;;;5031104;28;20037;-88
2023/05/09 05:30:56;;;;;;;21.17;12.57;;;14.90;99.90;;;;;;5032193;28;20443;-88
2023/05/09 05:33:21;;;;;;;20.55;13.32;;;15.00;99.90;;;;;;5033204;28;20035;-88
2023/05/09 05:35:47;;;;;;;19.90;11.95;;;14.90;99.90;;;;;;5031698;28;20025;-87
2023/05/09 05:38:13;;;;;;;17.92;10.27;;;15.00;99.90;;;;;;5032522;28;20037;-87
2023/05/09 05:40:39;;;;;;;16.92;11.20;;;15.00;99.90;;;;;;5032020;28;20083;-89
2023/05/09 05:43:06;;;;;;;17.08;10.98;;;15.10;99.90;;;;;;5032318;28;20044;-88
2023/05/09 05:45:33;;;;;;;21.08;12.88;;;15.20;99.90;;;;;;5031509;28;20040;-89
2023/05/09 05:48:02;;;;;;;20.73;11.98;;;15.30;99.90;;;;;;5014729;28;20114;-90
2023/05/09 05:50:29;;;;;;;18.58;11.52;;;15.20;99.90;;;;;;5025039;28;20037;-89
2023/05/09 05:52:54;;;;;;;20.80;12.45;;;15.20;99.90;;;;;;5035612;28;20090;-89
2023/05/09 05:55:21;;;;;;;18.65;11.85;;;15.30;99.90;;;;;;5034130;28;20078;-89
2023/05/09 05:57:47;;;;;;;17.08;10.65;;;15.30;99.90;;;;;;5034087;28;20065;-88
2023/05/09 06:00:15;;;;;;;16.77;11.35;;;15.30;99.90;;;;;;5047920;28;20042;-88
2023/05/09 06:02:48;;;;;;;17.65;11.63;;;15.40;99.90;;;;;;5022418;28;20051;-90
2023/05/09 06:05:28;;;;;;;18.85;12.32;;;15.40;99.90;;;;;;5032877;28;20476;-86
2023/05/09 06:07:57;;;;;;;16.25;10.32;;;15.40;99.90;;;;;;5020096;28;20048;-86
2023/05/09 06:10:23;;;;;;;17.15;10.38;;;15.40;99.90;;;;;;5023435;28;20102;-86
2023/05/09 06:12:48;;;;;;;15.63;10.73;;;15.40;99.90;;;;;;5032687;28;20032;-88
2023/05/09 06:15:14;;;;;;;14.68;9.25;;;15.40;99.90;;;;;;5033861;28;20037;-91
2023/05/09 06:17:44;;;;;;;15.20;11.00;;;15.60;99.90;;;;;;5029901;28;20037;-86
2023/05/09 06:20:10;;;;;;;14.60;9.18;;;15.60;99.90;;;;;;5038557;28;20060;-86
2023/05/09 06:22:35;;;;;;;11.75;8.35;;;15.80;99.90;;;;;;5018793;28;20902;-86
2023/05/09 06:25:01;;;;;;;12.60;7.40;;;15.90;99.90;;;;;;5018473;28;20024;-87
2023/05/09 06:27:27;;;;;;;14.00;9.80;;;15.90;99.90;;;;;;5040322;28;20075;-86
2023/05/09 06:29:53;;;;;;;18.00;12.43;;;15.80;99.90;;;;;;5015778;28;20113;-87
2023/05/09 06:32:18;;;;;;;12.75;9.13;;;15.80;99.90;;;;;;5009214;28;20033;-87
2023/05/09 06:34:44;;;;;;;13.45;9.38;;;15.80;99.90;;;;;;5027532;28;20037;-89
2023/05/09 06:37:10;;;;;;;12.93;9.45;;;15.80;99.90;;;;;;5020099;28;20456;-89
2023/05/09 06:39:35;;;;;;;11.15;8.48;;;15.90;99.90;;;;;;5031453;28;20033;-89
2023/05/09 06:42:01;;;;;;;10.38;7.70;;;15.90;99.90;;;;;;5033377;28;20592;-89
2023/05/09 06:44:31;;;;;;;9.75;7.10;;;16.10;99.90;;;;;;5016240;28;20040;-89
2023/05/09 06:46:57;;;;;;;11.13;8.55;;;16.20;99.90;;;;;;5048171;28;20036;-87
2023/05/09 06:49:23;;;;;;;16.30;11.57;;;16.30;99.90;;;;;;5021182;28;20075;-88
2023/05/09 06:51:48;;;;;;;13.32;8.80;;;16.30;99.90;;;;;;5048861;28;20039;-89
2023/05/09 06:54:15;;;;;;;15.13;10.88;;;16.50;99.90;;;;;;5020904;28;20460;-85
2023/05/09 06:56:41;;;;;;;13.60;10.25;;;16.60;99.90;;;;;;5038296;28;20567;-88
2023/05/09 06:59:07;;;;;;;14.95;10.32;;;16.70;99.90;;;;;;5017992;28;20422;-86
2023/05/09 07:01:33;;;;;;;13.88;10.68;;;16.50;99.90;;;;;;5049269;28;20063;-86
2023/05/09 07:03:58;;;;;;;15.35;10.27;;;16.60;99.90;;;;;;5022399;28;20754;-87
2023/05/09 07:06:24;;;;;;;11.77;9.60;;;16.70;99.90;;;;;;5033083;28;20508;-84
2023/05/09 07:08:50;;;;;;;13.88;10.38;;;16.80;99.90;;;;;;5018845;28;20123;-85
2023/05/09 07:11:15;;;;;;;14.23;10.40;;;16.80;99.90;;;;;;5033107;28;20400;-86
2023/05/09 07:13:41;;;;;;;10.52;8.52;;;16.70;99.90;;;;;;5033482;28;21108;-87
2023/05/09 07:16:07;;;;;;;12.32;8.82;;;16.80;99.90;;;;;;5031134;28;20040;-87
2023/05/09 07:18:32;;;;;;;12.73;9.13;;;16.90;99.90;;;;;;5019578;28;20063;-85
2023/05/09 07:20:58;;;;;;;12.93;9.63;;;17.00;99.90;;;;;;5018394;28;20040;-85
2023/05/09 07:23:24;;;;;;;12.65;9.93;;;17.10;99.90;;;;;;5036926;28;20036;-86
2023/05/09 07:25:58;;;;;;;12.10;9.18;;;17.20;99.90;;;;;;5022020;28;20029;-85
2023/05/09 07:28:24;;;;;;;11.60;8.35;;;17.20;99.90;;;;;;5000379;28;20059;-84
2023/05/09 07:30:49;;;;;;;12.88;8.98;;;17.20;99.90;;;;;;5046050;28;20029;-84
2023/05/09 07:33:15;;;;;;;14.68;10.57;;;17.50;99.90;;;;;;5024674;28;21519;-84
2023/05/09 07:35:41;;;;;;;13.35;9.82;;;17.50;99.90;;;;;;5019623;28;20085;-85
2023/05/09 07:38:06;;;;;;;9.93;7.90;;;17.60;99.90;;;;;;5028153;28;20047;-85
2023/05/09 07:40:35;;;;;;;11.02;7.07;;;17.90;99.90;;;;;;5026222;28;20043;-83
2023/05/09 07:43:02;;;;;;;;;;;17.90;99.90;;;;;;5021621;28;20049;-84
2023/05/09 07:45:27;;;;;;;10.35;7.93;;;17.90;99.90;;;;;;5020923;28;19939;-84
2023/05/09 07:47:53;;;;;;;10.70;8.93;;;17.90;99.90;;;;;;5030209;28;20096;-86
2023/05/09 07:50:19;;;;;;;13.35;9.35;;;17.90;99.90;;;;;;5036031;28;20028;-86
2023/05/09 07:52:45;;;;;;;9.05;8.10;;;18.00;99.90;;;;;;5033246;28;20094;-86
2023/05/09 07:55:11;;;;;;;8.68;6.78;;;18.10;99.90;;;;;;5029968;28;20040;-84
2023/05/09 07:57:38;;;;;;;10.27;7.25;;;18.20;99.90;;;;;;5046991;28;22028;-86
2023/05/09 08:00:05;;;;;;;9.15;6.88;;;18.10;99.90;;;;;;5044886;28;20051;-85
2023/05/09 08:02:38;;;;;;;8.77;5.78;;;18.30;99.90;;;;;;5047185;28;20556;-84
2023/05/09 08:05:05;;;;;;;7.00;5.80;;;18.40;99.90;;;;;;5020004;28;20031;-84
2023/05/09 08:07:30;;;;;;;8.18;6.60;;;18.40;99.90;;;;;;5019733;28;20041;-84
2023/05/09 08:09:56;;;;;;;9.85;6.93;;;18.30;99.90;;;;;;5017049;28;20031;-85
2023/05/09 08:12:22;;;;;;;8.73;6.72;;;18.40;99.90;;;;;;5046273;28;20476;-84
2023/05/09 08:14:47;;;;;;;7.88;6.13;;;18.40;99.90;;;;;;5030704;28;20850;-85
2023/05/09 08:17:13;;;;;;;7.85;6.43;;;18.50;99.90;;;;;;5031967;28;20067;-86
2023/05/09 08:19:39;;;;;;;7.22;5.97;;;18.40;99.90;;;;;;5045326;28;20074;-83
2023/05/09 08:22:04;;;;;;;8.20;5.75;;;18.60;99.90;;;;;;5035115;28;20564;-85
2023/05/09 08:24:31;;;;;;;8.73;5.97;;;18.70;99.90;;;;;;5019672;28;20489;-85
2023/05/09 08:26:57;;;;;;;7.50;5.18;;;18.80;99.90;;;;;;5053604;28;20055;-85
2023/05/09 08:29:22;;;;;;;10.07;7.28;;;19.00;99.90;;;;;;5022205;28;20033;-84
2023/05/09 08:31:48;;;;;;;8.52;6.13;;;18.90;99.90;;;;;;5056199;28;20347;-85
2023/05/09 08:34:14;;;;;;;10.10;9.02;;;18.90;99.90;;;;;;5049098;28;20037;-87
2023/05/09 08:36:40;;;;;;;9.30;7.60;;;18.60;99.90;;;;;;5024296;28;20029;-85
2023/05/09 08:39:06;;;;;;;10.50;7.78;;;18.80;99.90;;;;;;5042692;28;20036;-85
2023/05/09 08:41:34;;;;;;;10.90;7.35;;;19.00;99.90;;;;;;5042099;28;20523;-85
2023/05/09 08:44:00;;;;;;;8.45;6.75;;;18.80;99.90;;;;;;5042753;28;20408;-84
2023/05/09 08:46:47;;;;;;;6.15;5.28;;;18.80;99.90;;;;;;5040520;28;20021;-87
2023/05/09 08:49:14;;;;;;;6.72;5.25;;;19.10;99.90;;;;;;5055857;28;20040;-85
2023/05/09 08:51:40;;;;;;;7.63;5.90;;;19.10;99.90;;;;;;5038045;28;20604;-88
2023/05/09 08:54:06;;;;;;;5.65;4.53;;;18.90;99.90;;;;;;5025555;28;20032;-83
2023/05/09 08:56:34;;;;;;;6.93;4.28;;;19.10;99.90;;;;;;5055902;28;20216;-87
2023/05/09 08:59:00;;;;;;;8.65;6.53;;;19.00;99.90;;;;;;5042507;28;20444;-85
2023/05/09 09:01:27;;;;;;;6.63;5.47;;;19.00;99.90;;;;;;5056721;28;20107;-86
2023/05/09 09:03:53;;;;;;;7.95;6.25;;;19.30;99.90;;;;;;5056188;28;20044;-83
2023/05/09 09:06:20;;;;;;;5.88;4.70;;;19.20;99.90;;;;;;5040840;28;20084;-84
2023/05/09 09:08:47;;;;;;;7.38;5.43;;;19.40;99.90;;;;;;5041394;28;20033;-88
2023/05/09 09:11:14;;;;;;;8.38;6.57;;;19.20;99.90;;;;;;5023043;28;20957;-84
2023/05/09 09:13:42;;;;;;;6.72;5.25;;;19.20;99.90;;;;;;5033230;28;20059;-85
2023/05/09 09:16:19;;;;;;;7.85;5.10;;;19.30;99.90;;;;;;5039447;28;20050;-89
2023/05/09 09:18:45;;;;;;;8.65;5.88;;;19.00;99.90;;;;;;5022780;28;20032;-86
2023/05/09 09:21:17;;;;;;;7.07;6.30;;;18.60;99.90;;;;;;5033527;28;20035;-85
2023/05/09 09:23:46;;;;;;;6.85;4.93;;;18.40;99.90;;;;;;5044018;28;20039;-87
2023/05/09 09:26:12;;;;;;;4.90;4.28;;;18.70;99.90;;;;;;5044737;28;20032;-82
2023/05/09 09:28:38;;;;;;;6.25;3.58;;;18.60;99.90;;;;;;5058522;28;20086;-85
2023/05/09 09:31:29;;;;;;;5.07;4.03;;;18.60;99.90;;;;;;5026444;28;20017;-87
2023/05/09 09:34:00;;;;;;;4.95;4.20;;;18.60;99.90;;;;;;5041781;28;20025;-83
2023/05/09 09:36:27;;;;;;;7.60;5.60;;;18.40;99.90;;;;;;5046873;28;20032;-85
2023/05/09 09:39:03;;;;;;;5.68;5.15;;;18.40;99.90;;;;;;5031916;28;20047;-85
2023/05/09 09:41:36;;;;;;;5.30;4.75;;;18.30;99.90;;;;;;5001367;28;20139;-85
2023/05/09 09:44:10;;;;;;;6.35;5.43;;;18.30;99.90;;;;;;5021571;28;20700;-84
2023/05/09 09:46:53;;;;;;;5.22;3.90;;;18.20;99.90;;;;;;5033861;28;20028;-84
2023/05/09 09:49:22;;;;;;;5.45;4.40;;;18.20;99.90;;;;;;5022607;28;20032;-84
2023/05/09 09:51:55;;;;;;;4.80;3.65;;;18.20;99.90;;;;;;5021931;28;20032;-84
2023/05/09 09:54:24;;;;;;;6.47;5.15;;;18.30;99.90;;;;;;5021241;28;20472;-85
2023/05/09 09:56:53;;;;;;;4.75;3.53;;;18.40;99.90;;;;;;5022095;28;20025;-84
2023/05/09 09:59:22;;;;;;;10.80;9.38;;;18.50;99.90;;;;;;5019106;28;20695;-87
2023/05/09 10:01:56;;;;;;;7.15;6.07;;;17.90;99.90;;;;;;5026331;28;20125;-84
2023/05/09 10:04:23;;;;;;;5.28;4.60;;;18.00;99.90;;;;;;5018110;28;20036;-85
2023/05/09 10:07:04;;;;;;;5.57;3.95;;;18.20;99.90;;;;;;5031000;28;20029;-85
2023/05/09 10:09:31;;;;;;;10.10;7.60;;;18.60;99.90;;;;;;5020623;28;20798;-83
2023/05/09 10:12:05;;;;;;;7.15;5.63;;;18.30;99.90;;;;;;5036084;28;20032;-83
2023/05/09 10:14:33;;;;;;;7.25;6.07;;;18.40;99.90;;;;;;5023898;28;20056;-83
2023/05/09 10:17:01;;;;;;;6.93;4.43;;;18.50;99.90;;;;;;5052456;28;20024;-85
2023/05/09 10:19:28;;;;;;;5.95;3.60;;;18.80;99.90;;;;;;5021784;28;20032;-84
2023/05/09 10:22:03;;;;;;;3.67;3.38;;;18.90;99.90;;;;;;5057063;28;20029;-85
2023/05/09 10:24:34;;;;;;;5.03;4.53;;;18.90;99.90;;;;;;5026312;28;20116;-84
2023/05/09 10:27:08;;;;;;;4.35;3.45;;;18.90;99.90;;;;;;5049805;28;20914;-83
2023/05/09 10:29:37;;;;;;;6.82;5.25;;;19.00;99.90;;;;;;5051666;28;20131;-88
2023/05/09 10:32:42;;;;;;;8.48;6.00;;;18.70;99.90;;;;;;5049897;28;20880;-83
2023/05/09 10:35:12;;;;;;;10.00;5.93;;;18.60;99.90;;;;;;5022927;28;20043;-85
2023/05/09 10:37:38;;;;;;;5.30;4.25;;;18.50;99.90;;;;;;5038383;28;20155;-85
2023/05/09 10:40:05;;;;;;;3.53;3.05;;;18.60;99.90;;;;;;5026071;28;20501;-86
2023/05/09 10:42:31;;;;;;;7.57;3.90;;;18.50;99.90;;;;;;5023306;28;20040;-85
2023/05/09 10:44:57;;;;;;;4.93;3.60;;;18.50;99.90;;;;;;5032848;28;20108;-84
2023/05/09 10:47:27;;;;;;;3.53;3.00;;;18.50;99.90;;;;;;5015935;28;20260;-84
2023/05/09 10:49:53;;;;;;;6.75;5.35;;;18.60;99.90;;;;;;5039127;28;20043;-84
2023/05/09 10:52:22;;;;;;;4.70;3.20;;;18.30;99.90;;;;;;5037879;28;20083;-84
2023/05/09 10:55:00;;;;;;;5.33;4.13;;;18.40;99.90;;;;;;5049338;28;20037;-84
2023/05/09 10:57:30;;;;;;;3.50;3.20;;;18.40;99.90;;;;;;5025245;28;20033;-84
2023/05/09 10:59:57;;;;;;;2.78;2.40;;;18.50;99.90;;;;;;5020236;28;20089;-84
2023/05/09 11:02:31;;;;;;;3.70;2.25;;;18.70;99.90;;;;;;5015632;28;20541;-89
2023/05/09 11:05:17;;;;;;;3.75;2.20;;;18.80;99.90;;;;;;5039815;28;20070;-86
2023/05/09 11:07:42;;;;;;;2.42;1.23;;;18.40;99.90;;;;;;5041366;28;20511;-86
2023/05/09 11:10:19;;;;;;;3.15;1.65;;;18.60;99.90;;;;;;5003768;28;20028;-90
2023/05/09 11:12:59;;;;;;;3.83;2.20;;;18.60;99.90;;;;;;5037800;28;20405;-89
2023/05/09 11:15:26;;;;;;;;;;;18.50;99.90;;;;;;5033371;28;20044;-89
2023/05/09 11:18:09;;;;;;;3.78;1.73;;;18.40;99.90;;;;;;5049858;28;19917;-85
2023/05/09 11:20:41;;;;;;;3.60;2.17;;;18.50;99.90;;;;;;5031962;28;20431;-89
2023/05/09 11:23:10;;;;;;;3.10;2.50;;;18.30;99.90;;;;;;5020698;28;20044;-87
2023/05/09 11:25:38;;;;;;;5.00;2.43;;;18.20;99.90;;;;;;5024203;28;20413;-85
2023/05/09 11:28:05;;;;;;;2.72;1.77;;;18.30;99.90;;;;;;5020724;28;20431;-87
2023/05/09 11:30:50;;;;;;;4.20;2.75;;;18.20;99.90;;;;;;5019269;28;20697;-86
2023/05/09 11:33:27;;;;;;;3.35;2.80;;;17.90;99.90;;;;;;5036177;28;20033;-86
2023/05/09 11:36:16;;;;;;;6.15;4.72;;;17.80;99.90;;;;;;5038643;28;20032;-87
2023/05/09 11:38:42;;;;;;;4.97;3.03;;;17.40;99.90;;;;;;5048963;28;20543;-89
2023/05/09 11:41:08;;;;;;;3.40;2.72;;;17.50;99.90;;;;;;5017879;28;20056;-84
2023/05/09 11:43:36;;;;;;;6.25;4.70;;;17.50;99.90;;;;;;5042515;28;20045;-86
2023/05/09 11:46:03;;;;;;;5.18;4.60;;;17.30;99.90;;;;;;5039067;28;20542;-86
2023/05/09 11:48:28;;;;;;;4.43;3.38;;;17.10;99.90;;;;;;5031319;28;20466;-85
2023/05/09 11:50:54;;;;;;;3.47;2.63;;;17.10;99.90;;;;;;5019589;28;20028;-85
2023/05/09 11:53:20;;;;;;;4.63;3.25;;;17.00;99.90;;;;;;5037590;28;20039;-87
2023/05/09 11:55:45;;;;;;;2.75;1.92;;;16.90;99.90;;;;;;5033323;28;20040;-86
2023/05/09 11:58:12;;;;;;;2.08;1.20;;;17.10;99.90;;;;;;5037241;28;20071;-86
2023/05/09 12:00:44;;;;;;;5.38;3.05;;;17.20;99.90;;;;;;5031079;28;20036;-86
2023/05/09 12:03:11;;;;;;;2.53;1.35;;;16.90;99.90;;;;;;5035386;28;20501;-89
2023/05/09 12:05:38;;;;;;;1.90;1.10;;;17.30;99.90;;;;;;5021580;28;20408;-85
2023/05/09 12:08:05;;;;;;;2.88;2.42;;;17.50;99.90;;;;;;5021937;28;20552;-87
2023/05/09 12:10:35;;;;;;;4.05;2.80;;;17.20;99.90;;;;;;5022747;28;20025;-83
2023/05/09 12:13:01;;;;;;;3.88;1.98;;;17.10;99.90;;;;;;5045501;28;20770;-82
2023/05/09 12:15:36;;;;;;;2.53;0.90;;;17.10;99.90;;;;;;5032073;28;20052;-84
2023/05/09 12:18:03;;;;;;;2.80;1.55;;;17.50;99.90;;;;;;5046734;28;20033;-86
2023/05/09 12:20:47;;;;;;;3.00;2.17;;;17.30;99.90;;;;;;5031655;28;20032;-87
2023/05/09 12:23:14;;;;;;;1.75;0.70;;;17.20;99.90;;;;;;5037225;28;20040;-87
2023/05/09 12:25:55;;;;;;;1.52;0.60;;;17.30;99.90;;;;;;5024136;28;20397;-84
2023/05/09 12:28:25;;;;;;;2.83;1.20;;;17.20;99.90;;;;;;5017171;28;20036;-87
2023/05/09 12:30:52;;;;;;;1.77;0.95;;;16.60;99.90;;;;;;5046394;28;20028;-82
2023/05/09 12:33:18;;;;;;;0.98;0.50;;;16.60;99.90;;;;;;5037139;28;20044;-83
2023/05/09 12:35:46;;;;;;;1.30;0.50;;;16.90;99.90;;;;;;5014943;28;20507;-85
2023/05/09 12:38:19;;;;;;;2.42;0.90;;;16.90;99.90;;;;;;5015312;28;20037;-84
2023/05/09 12:40:47;;;;;;;1.80;0.90;;;16.50;99.90;;;;;;5027384;28;20084;-86
2023/05/09 12:43:13;;;;;;;2.55;0.98;;;16.20;99.90;;;;;;5038643;28;20380;-83